sensor_id;sensor_type;location;lat;lon;timestamp;pressure;altitude;pressure_sealevel;temperature;humidity
19023;BME280;35226;48.606;8.858;2023-11-19T00:00:19;96262.47;;;7.28;100.00
19023;BME280;35226;48.606;8.858;2023-11-19T00:02:45;96254.06;;;7.35;100.00
19023;BME280;35226;48.606;8.858;2023-11-19T00:05:11;96246.53;;;7.39;100.00
19023;BME280;35226;48.606;8.858;2023-11-19T00:07:37;96245.34;;;7.40;100.00
19023;BME280;35226;48.606;8.858;2023-11-19T00:10:13;96234.19;;;7.47;100.00
19023;BME280;35226;48.606;8.858;2023-11-19T00:12:44;96226.94;;;7.37;100.00
19023;BME280;35226;48.606;8.858;2023-11-19T00:15:10;96227.50;;;7.48;100.00
19023;BME280;35226;48.606;8.858;2023-11-19T00:17:37;96237.25;;;7.53;100.00
19023;BME280;35226;48.606;8.858;2023-11-19T00:20:06;96236.66;;;7.61;100.00
19023;BME280;35226;48.606;8.858;2023-11-19T00:22:32;96244.56;;;7.59;100.00
19023;BME280;35226;48.606;8.858;2023-11-19T00:24:59;96238.66;;;7.41;100.00
19023;BME280;35226;48.606;8.858;2023-11-19T00:27:25;96257.94;;;7.57;100.00
19023;BME280;35226;48.606;8.858;2023-11-19T00:29:51;96248.56;;;7.55;100.00
19023;BME280;35226;48.606;8.858;2023-11-19T00:32:17;96240.44;;;7.67;100.00
19023;BME280;35226;48.606;8.858;2023-11-19T00:34:45;96238.78;;;7.54;100.00
19023;BME280;35226;48.606;8.858;2023-11-19T00:37:13;96225.72;;;7.58;100.00
19023;BME280;35226;48.606;8.858;2023-11-19T00:39:40;96218.03;;;7.69;100.00
19023;BME280;35226;48.606;8.858;2023-11-19T00:42:06;96222.53;;;7.79;100.00
19023;BME280;35226;48.606;8.858;2023-11-19T00:44:31;96207.09;;;7.65;100.00
19023;BME280;35226;48.606;8.858;2023-11-19T00:46:57;96215.88;;;7.60;100.00
19023;BME280;35226;48.606;8.858;2023-11-19T00:49:22;96212.41;;;7.56;100.00
19023;BME280;35226;48.606;8.858;2023-11-19T00:51:48;96213.78;;;7.64;100.00
19023;BME280;35226;48.606;8.858;2023-11-19T00:54:14;96213.06;;;7.64;100.00
19023;BME280;35226;48.606;8.858;2023-11-19T00:56:39;96212.88;;;7.71;100.00
19023;BME280;35226;48.606;8.858;2023-11-19T00:59:05;96208.31;;;7.64;100.00
19023;BME280;35226;48.606;8.858;2023-11-19T01:01:30;96217.50;;;7.74;100.00
19023;BME280;35226;48.606;8.858;2023-11-19T01:03:56;96207.63;;;7.76;100.00
19023;BME280;35226;48.606;8.858;2023-11-19T01:06:32;96201.78;;;7.74;100.00
19023;BME280;35226;48.606;8.858;2023-11-19T01:08:57;96221.75;;;7.78;100.00
19023;BME280;35226;48.606;8.858;2023-11-19T01:11:24;96210.84;;;7.91;100.00
19023;BME280;35226;48.606;8.858;2023-11-19T01:13:51;96196.69;;;7.93;100.00
19023;BME280;35226;48.606;8.858;2023-11-19T01:16:17;96208.00;;;7.95;100.00
19023;BME280;35226;48.606;8.858;2023-11-19T01:18:44;96197.88;;;8.08;100.00
19023;BME280;35226;48.606;8.858;2023-11-19T01:21:09;96191.19;;;7.93;100.00
19023;BME280;35226;48.606;8.858;2023-11-19T01:23:35;96184.56;;;8.06;100.00
19023;BME280;35226;48.606;8.858;2023-11-19T01:26:02;96183.97;;;7.99;100.00
19023;BME280;35226;48.606;8.858;2023-11-19T01:28:28;96181.63;;;7.97;100.00
19023;BME280;35226;48.606;8.858;2023-11-19T01:30:53;96177.50;;;8.05;100.00
19023;BME280;35226;48.606;8.858;2023-11-19T01:33:19;96180.94;;;7.93;100.00
19023;BME280;35226;48.606;8.858;2023-11-19T01:35:44;96184.28;;;8.17;100.00
19023;BME280;35226;48.606;8.858;2023-11-19T01:38:10;96186.59;;;7.86;100.00
19023;BME280;35226;48.606;8.858;2023-11-19T01:40:36;96189.81;;;8.01;100.00
19023;BME280;35226;48.606;8.858;2023-11-19T01:43:03;96183.88;;;8.02;100.00
19023;BME280;35226;48.606;8.858;2023-11-19T01:45:30;96189.31;;;8.22;100.00
19023;BME280;35226;48.606;8.858;2023-11-19T01:47:57;96183.25;;;8.27;100.00
19023;BME280;35226;48.606;8.858;2023-11-19T01:50:23;96175.09;;;8.24;100.00
19023;BME280;35226;48.606;8.858;2023-11-19T01:52:52;96178.00;;;8.16;100.00
19023;BME280;35226;48.606;8.858;2023-11-19T01:55:18;96187.41;;;8.19;100.00
19023;BME280;35226;48.606;8.858;2023-11-19T01:57:45;96177.06;;;8.23;100.00
19023;BME280;35226;48.606;8.858;2023-11-19T02:00:12;96176.81;;;8.34;100.00
19023;BME280;35226;48.606;8.858;2023-11-19T02:02:43;96168.88;;;8.52;100.00
19023;BME280;35226;48.606;8.858;2023-11-19T02:05:13;96170.75;;;8.71;100.00
19023;BME280;35226;48.606;8.858;2023-11-19T02:07:39;96170.78;;;8.84;100.00
19023;BME280;35226;48.606;8.858;2023-11-19T02:10:05;96174.47;;;8.94;100.00
19023;BME280;35226;48.606;8.858;2023-11-19T02:12:34;96183.34;;;9.14;100.00
19023;BME280;35226;48.606;8.858;2023-11-19T02:15:02;96172.59;;;9.32;100.00
19023;BME280;35226;48.606;8.858;2023-11-19T02:17:28;96164.44;;;9.28;100.00
19023;BME280;35226;48.606;8.858;2023-11-19T02:19:56;96167.97;;;9.42;100.00
19023;BME280;35226;48.606;8.858;2023-11-19T02:22:22;96157.19;;;9.47;100.00
19023;BME280;35226;48.606;8.858;2023-11-19T02:24:52;96151.88;;;9.53;100.00
19023;BME280;35226;48.606;8.858;2023-11-19T02:27:46;96148.25;;;9.56;100.00
19023;BME280;35226;48.606;8.858;2023-11-19T02:30:13;96153.56;;;9.63;100.00
19023;BME280;35226;48.606;8.858;2023-11-19T02:32:41;96145.19;;;9.67;100.00
19023;BME280;35226;48.606;8.858;2023-11-19T02:35:07;96143.63;;;9.65;100.00
19023;BME280;35226;48.606;8.858;2023-11-19T02:37:37;96142.53;;;9.63;100.00
19023;BME280;35226;48.606;8.858;2023-11-19T02:40:04;96150.69;;;9.79;100.00
19023;BME280;35226;48.606;8.858;2023-11-19T02:42:31;96146.59;;;9.71;100.00
19023;BME280;35226;48.606;8.858;2023-11-19T02:44:56;96152.91;;;9.84;100.00
19023;BME280;35226;48.606;8.858;2023-11-19T02:47:22;96160.97;;;9.79;100.00
19023;BME280;35226;48.606;8.858;2023-11-19T02:49:49;96152.66;;;9.91;100.00
19023;BME280;35226;48.606;8.858;2023-11-19T02:52:15;96156.88;;;9.83;100.00
19023;BME280;35226;48.606;8.858;2023-11-19T02:54:43;96143.75;;;9.87;100.00
19023;BME280;35226;48.606;8.858;2023-11-19T02:57:08;96144.94;;;9.86;100.00
19023;BME280;35226;48.606;8.858;2023-11-19T02:59:39;96148.34;;;9.90;100.00
19023;BME280;35226;48.606;8.858;2023-11-19T03:02:09;96149.25;;;9.87;100.00
19023;BME280;35226;48.606;8.858;2023-11-19T03:04:40;96163.69;;;10.04;100.00
19023;BME280;35226;48.606;8.858;2023-11-19T03:07:06;96152.00;;;10.00;100.00
19023;BME280;35226;48.606;8.858;2023-11-19T03:09:35;96146.13;;;10.11;100.00
19023;BME280;35226;48.606;8.858;2023-11-19T03:12:01;96151.84;;;10.42;100.00
19023;BME280;35226;48.606;8.858;2023-11-19T03:14:27;96152.44;;;10.11;100.00
19023;BME280;35226;48.606;8.858;2023-11-19T03:16:53;96149.56;;;10.15;100.00
19023;BME280;35226;48.606;8.858;2023-11-19T03:19:18;96154.09;;;10.09;100.00
19023;BME280;35226;48.606;8.858;2023-11-19T03:21:44;96152.25;;;10.18;100.00
19023;BME280;35226;48.606;8.858;2023-11-19T03:24:12;96151.66;;;10.11;100.00
19023;BME280;35226;48.606;8.858;2023-11-19T03:26:38;96144.47;;;10.00;100.00
19023;BME280;35226;48.606;8.858;2023-11-19T03:29:04;96138.06;;;10.16;100.00
19023;BME280;35226;48.606;8.858;2023-11-19T03:31:29;96139.63;;;10.05;100.00
19023;BME280;35226;48.606;8.858;2023-11-19T03:33:55;96156.63;;;10.28;100.00
19023;BME280;35226;48.606;8.858;2023-11-19T03:36:20;96143.38;;;10.36;100.00
19023;BME280;35226;48.606;8.858;2023-11-19T03:38:46;96146.03;;;10.14;100.00
19023;BME280;35226;48.606;8.858;2023-11-19T03:41:15;96140.84;;;10.16;100.00
19023;BME280;35226;48.606;8.858;2023-11-19T03:43:41;96140.28;;;10.21;100.00
19023;BME280;35226;48.606;8.858;2023-11-19T03:46:19;96138.75;;;10.20;100.00
19023;BME280;35226;48.606;8.858;2023-11-19T03:48:49;96137.41;;;10.12;100.00
19023;BME280;35226;48.606;8.858;2023-11-19T03:51:14;96141.84;;;10.22;100.00
19023;BME280;35226;48.606;8.858;2023-11-19T03:53:46;96142.94;;;10.12;100.00
19023;BME280;35226;48.606;8.858;2023-11-19T03:56:12;96154.63;;;10.29;100.00
19023;BME280;35226;48.606;8.858;2023-11-19T03:58:38;96146.03;;;10.14;100.00
19023;BME280;35226;48.606;8.858;2023-11-19T04:01:05;96143.28;;;10.27;100.00
19023;BME280;35226;48.606;8.858;2023-11-19T04:03:31;96141.94;;;10.19;100.00
19023;BME280;35226;48.606;8.858;2023-11-19T04:05:56;96137.53;;;10.09;100.00
19023;BME280;35226;48.606;8.858;2023-11-19T04:08:22;96133.53;;;10.10;100.00
19023;BME280;35226;48.606;8.858;2023-11-19T04:10:48;96128.91;;;10.19;100.00
19023;BME280;35226;48.606;8.858;2023-11-19T04:13:13;96135.53;;;10.34;100.00
19023;BME280;35226;48.606;8.858;2023-11-19T04:15:39;96139.19;;;10.19;100.00
19023;BME280;35226;48.606;8.858;2023-11-19T04:18:04;96144.72;;;10.19;100.00
19023;BME280;35226;48.606;8.858;2023-11-19T04:20:30;96141.41;;;10.24;100.00
19023;BME280;35226;48.606;8.858;2023-11-19T04:22:57;96148.88;;;10.11;100.00
19023;BME280;35226;48.606;8.858;2023-11-19T04:25:23;96151.09;;;10.28;100.00
19023;BME280;35226;48.606;8.858;2023-11-19T04:27:51;96153.22;;;10.24;100.00
19023;BME280;35226;48.606;8.858;2023-11-19T04:30:17;96166.78;;;10.06;100.00
19023;BME280;35226;48.606;8.858;2023-11-19T04:32:43;96161.84;;;10.26;100.00
19023;BME280;35226;48.606;8.858;2023-11-19T04:35:09;96161.38;;;10.15;100.00
19023;BME280;35226;48.606;8.858;2023-11-19T04:37:34;96159.63;;;10.21;100.00
19023;BME280;35226;48.606;8.858;2023-11-19T04:40:00;96163.69;;;10.29;100.00
19023;BME280;35226;48.606;8.858;2023-11-19T04:42:26;96162.59;;;10.27;100.00
19023;BME280;35226;48.606;8.858;2023-11-19T04:44:51;96168.13;;;10.27;100.00
19023;BME280;35226;48.606;8.858;2023-11-19T04:47:17;96167.88;;;10.34;100.00
19023;BME280;35226;48.606;8.858;2023-11-19T04:49:43;96164.47;;;10.30;100.00
19023;BME280;35226;48.606;8.858;2023-11-19T04:52:08;96159.72;;;10.30;100.00
19023;BME280;35226;48.606;8.858;2023-11-19T04:54:34;96162.72;;;10.23;100.00
19023;BME280;35226;48.606;8.858;2023-11-19T04:56:59;96170.22;;;10.35;100.00
19023;BME280;35226;48.606;8.858;2023-11-19T04:59:25;96165.88;;;10.47;100.00
19023;BME280;35226;48.606;8.858;2023-11-19T05:01:50;96172.03;;;10.51;100.00
19023;BME280;35226;48.606;8.858;2023-11-19T05:04:16;96149.94;;;10.51;100.00
19023;BME280;35226;48.606;8.858;2023-11-19T05:06:44;96170.16;;;10.48;100.00
19023;BME280;35226;48.606;8.858;2023-11-19T05:09:09;96166.50;;;10.51;100.00
19023;BME280;35226;48.606;8.858;2023-11-19T05:11:37;96162.66;;;10.49;100.00
19023;BME280;35226;48.606;8.858;2023-11-19T05:14:04;96165.09;;;10.47;100.00
19023;BME280;35226;48.606;8.858;2023-11-19T05:16:29;96157.97;;;10.58;100.00
19023;BME280;35226;48.606;8.858;2023-11-19T05:18:55;96148.19;;;10.57;100.00
19023;BME280;35226;48.606;8.858;2023-11-19T05:21:20;96147.19;;;10.51;100.00
19023;BME280;35226;48.606;8.858;2023-11-19T05:23:46;96149.25;;;10.60;100.00
19023;BME280;35226;48.606;8.858;2023-11-19T05:26:22;96152.69;;;10.51;100.00
19023;BME280;35226;48.606;8.858;2023-11-19T05:28:48;96160.53;;;10.53;100.00
19023;BME280;35226;48.606;8.858;2023-11-19T05:31:15;96171.41;;;10.47;100.00
19023;BME280;35226;48.606;8.858;2023-11-19T05:33:40;96163.22;;;10.44;100.00
19023;BME280;35226;48.606;8.858;2023-11-19T05:36:06;96160.75;;;10.58;100.00
19023;BME280;35226;48.606;8.858;2023-11-19T05:38:34;96151.41;;;10.43;100.00
19023;BME280;35226;48.606;8.858;2023-11-19T05:40:59;96158.66;;;10.50;100.00
19023;BME280;35226;48.606;8.858;2023-11-19T05:43:25;96154.22;;;10.65;100.00
19023;BME280;35226;48.606;8.858;2023-11-19T05:45:50;96156.94;;;10.43;100.00
19023;BME280;35226;48.606;8.858;2023-11-19T05:48:16;96156.47;;;10.57;100.00
19023;BME280;35226;48.606;8.858;2023-11-19T05:50:42;96157.59;;;10.47;100.00
19023;BME280;35226;48.606;8.858;2023-11-19T05:53:07;96156.56;;;10.54;100.00
19023;BME280;35226;48.606;8.858;2023-11-19T05:55:39;96161.69;;;10.43;100.00
19023;BME280;35226;48.606;8.858;2023-11-19T05:58:26;96150.03;;;10.60;100.00
19023;BME280;35226;48.606;8.858;2023-11-19T06:00:56;96154.91;;;10.56;100.00
19023;BME280;35226;48.606;8.858;2023-11-19T06:03:22;96161.72;;;10.64;100.00
19023;BME280;35226;48.606;8.858;2023-11-19T06:05:48;96164.41;;;10.55;100.00
19023;BME280;35226;48.606;8.858;2023-11-19T06:08:14;96172.28;;;10.44;100.00
19023;BME280;35226;48.606;8.858;2023-11-19T06:10:43;96164.44;;;10.43;100.00
19023;BME280;35226;48.606;8.858;2023-11-19T06:13:11;96166.94;;;10.62;100.00
19023;BME280;35226;48.606;8.858;2023-11-19T06:15:37;96160.78;;;10.46;100.00
19023;BME280;35226;48.606;8.858;2023-11-19T06:18:03;96157.78;;;10.53;100.00
19023;BME280;35226;48.606;8.858;2023-11-19T06:20:32;96165.41;;;10.49;100.00
19023;BME280;35226;48.606;8.858;2023-11-19T06:22:58;96168.13;;;10.74;100.00
19023;BME280;35226;48.606;8.858;2023-11-19T06:25:24;96161.00;;;10.51;100.00
19023;BME280;35226;48.606;8.858;2023-11-19T06:27:50;96166.09;;;10.40;100.00
19023;BME280;35226;48.606;8.858;2023-11-19T06:30:16;96170.28;;;10.45;100.00
19023;BME280;35226;48.606;8.858;2023-11-19T06:32:42;96167.88;;;10.34;100.00
19023;BME280;35226;48.606;8.858;2023-11-19T06:35:07;96176.16;;;10.47;100.00
19023;BME280;35226;48.606;8.858;2023-11-19T06:37:33;96176.25;;;10.56;100.00
19023;BME280;35226;48.606;8.858;2023-11-19T06:39:59;96178.84;;;10.72;100.00
19023;BME280;35226;48.606;8.858;2023-11-19T06:42:25;96177.13;;;10.40;100.00
19023;BME280;35226;48.606;8.858;2023-11-19T06:44:50;96190.50;;;10.42;100.00
19023;BME280;35226;48.606;8.858;2023-11-19T06:47:17;96192.59;;;10.50;100.00
19023;BME280;35226;48.606;8.858;2023-11-19T06:49:44;96189.97;;;10.47;100.00
19023;BME280;35226;48.606;8.858;2023-11-19T06:52:09;96187.31;;;10.43;100.00
19023;BME280;35226;48.606;8.858;2023-11-19T06:54:35;96186.97;;;10.41;100.00
19023;BME280;35226;48.606;8.858;2023-11-19T06:57:00;96179.13;;;10.39;100.00
19023;BME280;35226;48.606;8.858;2023-11-19T06:59:26;96183.06;;;10.64;100.00
19023;BME280;35226;48.606;8.858;2023-11-19T07:01:52;96182.38;;;10.38;100.00
19023;BME280;35226;48.606;8.858;2023-11-19T07:04:17;96187.19;;;10.47;100.00
19023;BME280;35226;48.606;8.858;2023-11-19T07:06:42;96194.03;;;10.42;100.00
19023;BME280;35226;48.606;8.858;2023-11-19T07:09:08;96193.38;;;10.51;100.00
19023;BME280;35226;48.606;8.858;2023-11-19T07:11:40;96185.75;;;10.42;100.00
19023;BME280;35226;48.606;8.858;2023-11-19T07:14:09;96180.91;;;10.46;100.00
19023;BME280;35226;48.606;8.858;2023-11-19T07:16:35;96180.47;;;10.48;100.00
19023;BME280;35226;48.606;8.858;2023-11-19T07:19:03;96183.66;;;10.46;100.00
19023;BME280;35226;48.606;8.858;2023-11-19T07:21:28;96185.22;;;10.47;100.00
19023;BME280;35226;48.606;8.858;2023-11-19T07:23:55;96182.56;;;10.44;100.00
19023;BME280;35226;48.606;8.858;2023-11-19T07:26:20;96185.41;;;10.53;100.00
19023;BME280;35226;48.606;8.858;2023-11-19T07:28:47;96194.38;;;10.44;100.00
19023;BME280;35226;48.606;8.858;2023-11-19T07:31:13;96204.75;;;10.40;100.00
19023;BME280;35226;48.606;8.858;2023-11-19T07:33:39;96204.88;;;10.36;100.00
19023;BME280;35226;48.606;8.858;2023-11-19T07:36:08;96207.41;;;10.44;100.00
19023;BME280;35226;48.606;8.858;2023-11-19T07:38:34;96207.63;;;10.49;100.00
19023;BME280;35226;48.606;8.858;2023-11-19T07:40:59;96217.88;;;10.49;100.00
19023;BME280;35226;48.606;8.858;2023-11-19T07:43:24;96218.22;;;10.51;100.00
19023;BME280;35226;48.606;8.858;2023-11-19T07:45:50;96232.47;;;10.49;100.00
19023;BME280;35226;48.606;8.858;2023-11-19T07:48:16;96223.72;;;10.63;100.00
19023;BME280;35226;48.606;8.858;2023-11-19T07:50:43;96223.50;;;10.58;100.00
19023;BME280;35226;48.606;8.858;2023-11-19T07:53:08;96216.75;;;10.59;100.00
19023;BME280;35226;48.606;8.858;2023-11-19T07:55:34;96216.22;;;10.64;100.00
19023;BME280;35226;48.606;8.858;2023-11-19T07:57:59;96228.03;;;10.64;100.00
19023;BME280;35226;48.606;8.858;2023-11-19T08:00:25;96219.06;;;10.73;100.00
19023;BME280;35226;48.606;8.858;2023-11-19T08:02:50;96214.94;;;10.77;100.00
19023;BME280;35226;48.606;8.858;2023-11-19T08:05:16;96214.50;;;10.79;100.00
19023;BME280;35226;48.606;8.858;2023-11-19T08:07:41;96211.78;;;10.66;100.00
19023;BME280;35226;48.606;8.858;2023-11-19T08:10:07;96210.44;;;10.71;100.00
19023;BME280;35226;48.606;8.858;2023-11-19T08:12:35;96211.88;;;10.75;100.00
19023;BME280;35226;48.606;8.858;2023-11-19T08:15:04;96207.31;;;10.82;100.00
19023;BME280;35226;48.606;8.858;2023-11-19T08:17:32;96211.09;;;10.75;100.00
19023;BME280;35226;48.606;8.858;2023-11-19T08:19:58;96218.38;;;10.82;100.00
19023;BME280;35226;48.606;8.858;2023-11-19T08:22:25;96218.19;;;10.76;100.00
19023;BME280;35226;48.606;8.858;2023-11-19T08:24:51;96212.19;;;10.77;100.00
19023;BME280;35226;48.606;8.858;2023-11-19T08:27:16;96215.41;;;10.76;100.00
19023;BME280;35226;48.606;8.858;2023-11-19T08:29:41;96223.00;;;10.85;100.00
19023;BME280;35226;48.606;8.858;2023-11-19T08:32:07;96230.97;;;10.83;100.00
19023;BME280;35226;48.606;8.858;2023-11-19T08:34:32;96224.16;;;10.74;100.00
19023;BME280;35226;48.606;8.858;2023-11-19T08:36:59;96227.72;;;10.97;100.00
19023;BME280;35226;48.606;8.858;2023-11-19T08:39:25;96227.03;;;11.05;100.00
19023;BME280;35226;48.606;8.858;2023-11-19T08:41:50;96219.97;;;11.04;100.00
19023;BME280;35226;48.606;8.858;2023-11-19T08:44:16;96224.06;;;11.00;100.00
19023;BME280;35226;48.606;8.858;2023-11-19T08:46:48;96231.25;;;10.97;100.00
19023;BME280;35226;48.606;8.858;2023-11-19T08:49:14;96233.72;;;11.17;100.00
19023;BME280;35226;48.606;8.858;2023-11-19T08:51:40;96214.34;;;11.17;100.00
19023;BME280;35226;48.606;8.858;2023-11-19T08:54:05;96224.09;;;11.22;100.00
19023;BME280;35226;48.606;8.858;2023-11-19T08:56:31;96218.22;;;11.20;100.00
19023;BME280;35226;48.606;8.858;2023-11-19T08:58:57;96221.44;;;11.40;100.00
19023;BME280;35226;48.606;8.858;2023-11-19T09:01:23;96216.63;;;11.53;100.00
19023;BME280;35226;48.606;8.858;2023-11-19T09:03:49;96209.22;;;11.50;100.00
19023;BME280;35226;48.606;8.858;2023-11-19T09:06:15;96203.47;;;11.66;100.00
19023;BME280;35226;48.606;8.858;2023-11-19T09:08:42;96223.72;;;11.54;100.00
19023;BME280;35226;48.606;8.858;2023-11-19T09:11:07;96228.19;;;11.61;100.00
19023;BME280;35226;48.606;8.858;2023-11-19T09:13:34;96231.31;;;11.84;100.00
19023;BME280;35226;48.606;8.858;2023-11-19T09:16:00;96221.91;;;11.82;100.00
19023;BME280;35226;48.606;8.858;2023-11-19T09:18:29;96219.34;;;11.97;100.00
19023;BME280;35226;48.606;8.858;2023-11-19T09:20:55;96224.78;;;12.09;100.00
19023;BME280;35226;48.606;8.858;2023-11-19T09:23:20;96217.44;;;12.24;100.00
19023;BME280;35226;48.606;8.858;2023-11-19T09:25:46;96220.53;;;12.27;100.00
19023;BME280;35226;48.606;8.858;2023-11-19T09:28:11;96224.38;;;12.20;100.00
19023;BME280;35226;48.606;8.858;2023-11-19T09:30:38;96228.19;;;12.13;100.00
19023;BME280;35226;48.606;8.858;2023-11-19T09:33:03;96232.06;;;12.25;100.00
19023;BME280;35226;48.606;8.858;2023-11-19T09:35:29;96231.03;;;12.32;100.00
19023;BME280;35226;48.606;8.858;2023-11-19T09:37:54;96229.13;;;12.59;100.00
19023;BME280;35226;48.606;8.858;2023-11-19T09:40:20;96232.31;;;12.49;100.00
19023;BME280;35226;48.606;8.858;2023-11-19T09:42:47;96234.78;;;12.47;100.00
19023;BME280;35226;48.606;8.858;2023-11-19T09:45:14;96229.66;;;12.36;100.00
19023;BME280;35226;48.606;8.858;2023-11-19T09:47:45;96217.09;;;12.53;100.00
19023;BME280;35226;48.606;8.858;2023-11-19T09:50:18;96218.94;;;12.66;100.00
19023;BME280;35226;48.606;8.858;2023-11-19T09:52:45;96219.28;;;12.77;100.00
19023;BME280;35226;48.606;8.858;2023-11-19T09:55:11;96215.28;;;12.87;100.00
19023;BME280;35226;48.606;8.858;2023-11-19T09:57:38;96219.28;;;12.77;100.00
19023;BME280;35226;48.606;8.858;2023-11-19T10:00:06;96200.97;;;12.88;100.00
19023;BME280;35226;48.606;8.858;2023-11-19T10:02:33;96198.97;;;12.98;100.00
19023;BME280;35226;48.606;8.858;2023-11-19T10:05:06;96182.47;;;13.04;100.00
19023;BME280;35226;48.606;8.858;2023-11-19T10:07:35;96181.44;;;12.92;100.00
19023;BME280;35226;48.606;8.858;2023-11-19T10:10:01;96191.56;;;13.04;100.00
19023;BME280;35226;48.606;8.858;2023-11-19T10:12:27;96188.66;;;12.89;100.00
19023;BME280;35226;48.606;8.858;2023-11-19T10:14:56;96183.72;;;13.03;100.00
19023;BME280;35226;48.606;8.858;2023-11-19T10:17:36;96199.59;;;13.02;100.00
19023;BME280;35226;48.606;8.858;2023-11-19T10:20:01;96195.56;;;13.12;100.00
19023;BME280;35226;48.606;8.858;2023-11-19T10:22:28;96173.72;;;13.14;100.00
19023;BME280;35226;48.606;8.858;2023-11-19T10:24:54;96187.91;;;13.25;100.00
19023;BME280;35226;48.606;8.858;2023-11-19T10:27:19;96172.94;;;13.32;100.00
19023;BME280;35226;48.606;8.858;2023-11-19T10:29:48;96173.13;;;13.28;100.00
19023;BME280;35226;48.606;8.858;2023-11-19T10:32:14;96162.91;;;13.44;100.00
19023;BME280;35226;48.606;8.858;2023-11-19T10:34:42;96145.00;;;13.54;100.00
19023;BME280;35226;48.606;8.858;2023-11-19T10:37:08;96139.34;;;13.81;100.00
19023;BME280;35226;48.606;8.858;2023-11-19T10:39:53;96138.59;;;14.14;100.00
19023;BME280;35226;48.606;8.858;2023-11-19T10:42:22;96138.59;;;14.47;100.00
19023;BME280;35226;48.606;8.858;2023-11-19T10:44:47;96134.59;;;14.48;100.00
19023;BME280;35226;48.606;8.858;2023-11-19T10:47:14;96111.88;;;14.16;100.00
19023;BME280;35226;48.606;8.858;2023-11-19T10:49:39;96111.06;;;14.25;100.00
19023;BME280;35226;48.606;8.858;2023-11-19T10:52:08;96106.19;;;14.11;100.00
19023;BME280;35226;48.606;8.858;2023-11-19T10:54:34;96108.44;;;14.21;100.00
19023;BME280;35226;48.606;8.858;2023-11-19T10:57:01;96101.59;;;14.31;100.00
19023;BME280;35226;48.606;8.858;2023-11-19T10:59:31;96100.72;;;14.25;100.00
19023;BME280;35226;48.606;8.858;2023-11-19T11:02:03;96090.59;;;14.46;100.00
19023;BME280;35226;48.606;8.858;2023-11-19T11:04:33;96099.03;;;14.52;100.00
19023;BME280;35226;48.606;8.858;2023-11-19T11:07:05;96102.41;;;14.56;100.00
19023;BME280;35226;48.606;8.858;2023-11-19T11:09:31;96090.91;;;14.63;100.00
19023;BME280;35226;48.606;8.858;2023-11-19T11:11:58;96094.16;;;14.61;100.00
19023;BME280;35226;48.606;8.858;2023-11-19T11:14:25;96098.63;;;14.68;100.00
19023;BME280;35226;48.606;8.858;2023-11-19T11:16:53;96093.06;;;14.68;100.00
19023;BME280;35226;48.606;8.858;2023-11-19T11:19:19;96103.09;;;15.04;100.00
19023;BME280;35226;48.606;8.858;2023-11-19T11:21:50;96100.59;;;15.06;100.00
19023;BME280;35226;48.606;8.858;2023-11-19T11:29:40;96115.38;;;14.97;100.00
19023;BME280;35226;48.606;8.858;2023-11-19T11:35:03;96117.03;;;14.80;100.00
19023;BME280;35226;48.606;8.858;2023-11-19T11:37:47;96110.31;;;14.72;100.00
19023;BME280;35226;48.606;8.858;2023-11-19T11:40:15;96113.47;;;14.79;100.00
19023;BME280;35226;48.606;8.858;2023-11-19T11:42:41;96112.53;;;14.82;100.00
19023;BME280;35226;48.606;8.858;2023-11-19T11:45:09;96110.81;;;14.85;100.00
19023;BME280;35226;48.606;8.858;2023-11-19T11:50:10;96101.63;;;14.55;100.00
19023;BME280;35226;48.606;8.858;2023-11-19T11:55:51;96110.19;;;15.05;100.00
19023;BME280;35226;48.606;8.858;2023-11-19T11:58:17;96106.94;;;15.06;100.00
19023;BME280;35226;48.606;8.858;2023-11-19T12:00:43;96113.66;;;15.29;100.00
19023;BME280;35226;48.606;8.858;2023-11-19T12:03:08;96098.13;;;15.23;100.00
19023;BME280;35226;48.606;8.858;2023-11-19T12:05:42;96103.06;;;15.57;100.00
19023;BME280;35226;48.606;8.858;2023-11-19T12:08:10;96097.94;;;15.26;100.00
19023;BME280;35226;48.606;8.858;2023-11-19T12:10:44;96093.63;;;15.54;100.00
19023;BME280;35226;48.606;8.858;2023-11-19T12:13:11;96090.66;;;15.58;100.00
19023;BME280;35226;48.606;8.858;2023-11-19T12:18:24;96092.75;;;15.34;100.00
19023;BME280;35226;48.606;8.858;2023-11-19T12:20:51;96094.47;;;15.31;100.00
19023;BME280;35226;48.606;8.858;2023-11-19T12:23:17;96094.84;;;15.09;100.00
19023;BME280;35226;48.606;8.858;2023-11-19T12:25:43;96089.19;;;15.18;100.00
19023;BME280;35226;48.606;8.858;2023-11-19T12:28:14;96090.53;;;15.23;100.00
19023;BME280;35226;48.606;8.858;2023-11-19T12:30:42;96079.91;;;15.36;100.00
19023;BME280;35226;48.606;8.858;2023-11-19T12:33:09;96082.69;;;15.36;100.00
19023;BME280;35226;48.606;8.858;2023-11-19T12:35:42;96072.97;;;15.17;100.00
19023;BME280;35226;48.606;8.858;2023-11-19T12:38:08;96086.31;;;15.28;100.00
19023;BME280;35226;48.606;8.858;2023-11-19T12:40:34;96076.00;;;15.78;100.00
19023;BME280;35226;48.606;8.858;2023-11-19T12:43:00;96072.13;;;15.55;100.00
19023;BME280;35226;48.606;8.858;2023-11-19T12:45:37;96078.66;;;15.37;100.00
19023;BME280;35226;48.606;8.858;2023-11-19T12:48:04;96072.78;;;15.35;100.00
19023;BME280;35226;48.606;8.858;2023-11-19T12:50:50;96071.38;;;15.54;100.00
19023;BME280;35226;48.606;8.858;2023-11-19T12:53:16;96079.69;;;15.25;100.00
19023;BME280;35226;48.606;8.858;2023-11-19T12:55:41;96075.00;;;15.61;100.00
19023;BME280;35226;48.606;8.858;2023-11-19T12:58:07;96066.13;;;15.47;100.00
19023;BME280;35226;48.606;8.858;2023-11-19T13:00:32;96059.81;;;15.32;100.00
19023;BME280;35226;48.606;8.858;2023-11-19T13:02:58;96053.88;;;15.25;100.00
19023;BME280;35226;48.606;8.858;2023-11-19T13:05:30;96063.84;;;15.31;100.00
19023;BME280;35226;48.606;8.858;2023-11-19T13:08:05;96063.44;;;15.68;100.00